createdAt,value
2022-09-23T00:16:21.073Z,96639.45
2022-09-23T00:20:13.389Z,96635.17
2022-09-23T00:24:05.423Z,96635.06
2022-09-23T00:43:47.877Z,96626.17
2022-09-23T00:47:40.207Z,96627.96
2022-09-23T01:03:30.124Z,96633.08
2022-09-23T01:07:21.985Z,96633.45
2022-09-23T01:11:17.321Z,96636.22
2022-09-23T01:15:20.851Z,96638.40
2022-09-23T01:23:19.699Z,96648.23
2022-09-23T01:27:16.645Z,96645.34
2022-09-23T01:31:12.838Z,96646.80
2022-09-23T01:35:20.227Z,96656.80
2022-09-23T01:39:15.311Z,96653.73
2022-09-23T01:43:04.629Z,96653.15
2022-09-23T01:46:56.723Z,96653.29
2022-09-23T01:51:18.613Z,96656.33
2022-09-23T01:55:20.425Z,96654.86
2022-09-23T01:59:10.726Z,96658.84
2022-09-23T02:03:11.581Z,96653.18
2022-09-23T02:07:03.804Z,96652.27
2022-09-23T02:11:04.837Z,96653.60
2022-09-23T02:19:08.172Z,96653.38
2022-09-23T02:23:01.398Z,96660.15
2022-09-23T02:27:09.874Z,96661.27
2022-09-23T02:31:14.357Z,96653.00
2022-09-23T02:35:06.770Z,96659.60
2022-09-23T02:39:01.431Z,96656.48
2022-09-23T02:43:06.455Z,96658.13
2022-09-23T02:50:46.924Z,96656.61
2022-09-23T02:54:37.217Z,96661.67
2022-09-23T02:58:32.082Z,96668.26
2022-09-23T03:02:25.138Z,96670.38
2022-09-23T03:06:20.053Z,96668.38
2022-09-23T03:10:17.469Z,96668.39
2022-09-23T03:14:03.478Z,96664.48
2022-09-23T03:21:55.011Z,96666.08
2022-09-23T03:25:47.242Z,96670.39
2022-09-23T03:29:35.080Z,96668.52
2022-09-23T04:00:35.678Z,96654.58
2022-09-23T04:04:21.097Z,96651.52
2022-09-23T04:08:12.292Z,96641.61
2022-09-23T04:12:04.699Z,96641.63
2022-09-23T04:27:52.186Z,96644.95
2022-09-23T04:31:47.934Z,96649.05
2022-09-23T04:35:40.572Z,96654.63
2022-09-23T04:39:34.315Z,96654.17
2022-09-23T04:59:08.798Z,96667.29
2022-09-23T05:02:59.868Z,96665.49
2022-09-23T05:22:15.774Z,96655.01
2022-09-23T05:26:07.966Z,96659.70
2022-09-23T05:30:01.476Z,96661.60
2022-09-23T05:33:54.367Z,96659.84
2022-09-23T05:49:59.591Z,96659.73
2022-09-23T05:53:51.036Z,96661.50
2022-09-23T05:57:44.027Z,96667.90
2022-09-23T06:12:25.526Z,96667.23
2022-09-23T06:16:18.226Z,96669.88
2022-09-23T06:20:10.324Z,96670.67
2022-09-23T06:24:05.990Z,96673.69
2022-09-23T06:35:59.212Z,96665.10
2022-09-23T06:39:53.165Z,96667.30
2022-09-23T06:43:49.880Z,96665.75
2022-09-23T06:59:23.757Z,96668.23
2022-09-23T07:03:15.099Z,96669.50
2022-09-23T07:07:07.165Z,96668.08
2022-09-23T07:10:59.770Z,96671.44
2022-09-23T07:30:17.875Z,96674.17
2022-09-23T07:34:15.531Z,96674.52
2022-09-23T07:38:08.802Z,96677.50
2022-09-23T07:42:01.917Z,96673.95
2022-09-23T07:57:52.569Z,96664.65
2022-09-23T08:01:26.721Z,96663.67
2022-09-23T08:05:09.189Z,96670.08
2022-09-23T08:28:24.152Z,96666.11
2022-09-23T08:32:15.967Z,96664.45
2022-09-23T08:36:08.284Z,96660.48
2022-09-23T08:39:53.222Z,96655.16
2022-09-23T08:59:03.239Z,96648.45
2022-09-23T09:02:56.685Z,96652.92
2022-09-23T09:06:53.709Z,96653.98
2022-09-23T09:10:43.407Z,96649.83
2022-09-23T09:14:36.018Z,96638.77
2022-09-23T09:18:43.645Z,96641.65
2022-09-23T09:22:15.917Z,96637.35
2022-09-23T09:26:28.907Z,96634.63
2022-09-23T09:30:20.500Z,96631.86
2022-09-23T09:34:22.634Z,96628.35
2022-09-23T09:38:16.920Z,96630.65
2022-09-23T09:42:01.840Z,96635.70
2022-09-23T09:46:03.851Z,96639.66
2022-09-23T09:50:11.838Z,96634.73
2022-09-23T09:54:07.447Z,96631.46
2022-09-23T09:57:56.940Z,96635.90
2022-09-23T10:01:49.518Z,96645.46
2022-09-23T10:05:32.759Z,96643.40
2022-09-23T10:09:01.160Z,96644.70
2022-09-23T10:12:38.945Z,96645.20
2022-09-23T10:16:18.496Z,96640.08
2022-09-23T10:19:55.734Z,96635.50
2022-09-23T10:23:47.554Z,96641.41
2022-09-23T10:27:39.697Z,96631.84
2022-09-23T10:43:07.512Z,96628.05
2022-09-23T11:10:53.392Z,96622.39
2022-09-23T11:15:02.585Z,96604.73
2022-09-23T11:19:06.194Z,96607.20
2022-09-23T11:22:49.336Z,96605.15
2022-09-23T11:26:46.626Z,96600.48
2022-09-23T11:30:39.826Z,96599.31
2022-09-23T11:34:43.475Z,96599.98
2022-09-23T11:38:25.372Z,96595.73
2022-09-23T11:42:20.617Z,96588.51
2022-09-23T11:46:09.513Z,96580.33
2022-09-23T11:50:12.998Z,96581.29
2022-09-23T11:53:54.801Z,96579.73
2022-09-23T11:57:48.188Z,96579.36
2022-09-23T12:01:36.562Z,96578.17
2022-09-23T12:05:29.625Z,96581.14
2022-09-23T12:09:35.782Z,96583.81
2022-09-23T12:13:38.657Z,96583.66
2022-09-23T12:17:45.561Z,96588.92
2022-09-23T12:21:48.671Z,96589.60
2022-09-23T12:25:18.626Z,96590.05
2022-09-23T12:29:15.823Z,96590.34
2022-09-23T12:33:08.240Z,96590.02
2022-09-23T12:37:07.743Z,96596.02
2022-09-23T12:41:05.357Z,96592.90
2022-09-23T12:45:08.626Z,96588.34
2022-09-23T12:48:59.364Z,96590.24
2022-09-23T12:52:54.260Z,96590.31
2022-09-23T12:56:50.505Z,96586.65
2022-09-23T13:00:56.791Z,96590.20
2022-09-23T13:04:47.078Z,96587.08
2022-09-23T13:16:18.495Z,96577.90
2022-09-23T13:47:21.964Z,96570.39
2022-09-23T13:51:14.427Z,96569.75
2022-09-23T13:55:08.330Z,96574.20
2022-09-23T13:59:01.754Z,96571.22
2022-09-23T14:02:55.594Z,96569.31
2022-09-23T14:06:51.749Z,96571.56
2022-09-23T15:53:36.059Z,96627.29
2022-09-23T15:57:21.239Z,96624.77
2022-09-23T16:01:16.439Z,96628.06
2022-09-23T16:05:08.851Z,96630.52
2022-09-23T16:24:45.205Z,96621.89
2022-09-23T16:28:37.790Z,96625.73
2022-09-23T16:32:29.928Z,96627.34
2022-09-23T16:36:22.328Z,96628.23
2022-09-23T16:55:40.981Z,96644.60
2022-09-23T16:59:33.592Z,96647.23
2022-09-23T17:03:25.141Z,96651.00
2022-09-23T17:07:18.720Z,96647.57
2022-09-23T17:19:07.592Z,96641.20
2022-09-23T17:23:00.351Z,96640.91
2022-09-23T17:26:53.708Z,96638.77
2022-09-23T17:30:47.815Z,96648.38
2022-09-23T17:50:16.077Z,96653.15
2022-09-23T17:54:08.174Z,96651.20
2022-09-23T17:58:03.525Z,96654.07
2022-09-23T18:13:51.058Z,96657.54
2022-09-23T18:17:42.962Z,96653.20
2022-09-23T18:21:35.333Z,96653.91
2022-09-23T18:25:39.122Z,96653.34
2022-09-23T18:45:11.663Z,96645.54
2022-09-23T18:49:00.479Z,96643.04
2022-09-23T18:52:52.212Z,96647.21
2022-09-23T19:12:32.685Z,96661.11
2022-09-23T19:16:25.206Z,96656.52
2022-09-23T19:20:13.984Z,96658.03
2022-09-23T19:24:06.749Z,96658.90
2022-09-23T19:40:07.667Z,96649.59
2022-09-23T19:44:00.042Z,96651.38
2022-09-23T19:47:51.285Z,96656.05
2022-09-23T19:51:46.646Z,96652.41
2022-09-23T20:03:30.443Z,96658.71
2022-09-23T20:07:23.293Z,96660.95
2022-09-23T20:11:13.212Z,96662.74
2022-09-23T20:15:05.462Z,96660.95
2022-09-23T20:27:04.305Z,96663.73
2022-09-23T20:30:54.524Z,96669.13
2022-09-23T20:46:56.322Z,96660.14
2022-09-23T20:50:41.251Z,96661.04
2022-09-23T20:54:33.343Z,96658.66
2022-09-23T20:58:26.845Z,96653.36
2022-09-23T21:17:35.470Z,96668.88
2022-09-23T21:21:36.790Z,96660.87
2022-09-23T21:25:31.841Z,96661.71
2022-09-23T21:29:24.191Z,96661.69
2022-09-23T21:33:16.320Z,96663.83
2022-09-23T21:53:02.627Z,96672.02
2022-09-23T21:56:56.083Z,96667.85
2022-09-23T22:00:49.522Z,96673.27
2022-09-23T22:04:40.017Z,96675.48
2022-09-23T22:12:47.062Z,96679.26
2022-09-23T22:16:38.405Z,96676.58
2022-09-23T22:20:32.519Z,96678.30
2022-09-23T22:36:22.280Z,96675.83
2022-09-23T22:39:13.711Z,96672.92
2022-09-23T22:43:05.253Z,96675.98
2022-09-23T22:46:51.839Z,96674.33
2022-09-23T23:06:08.688Z,96677.44
2022-09-23T23:10:00.186Z,96685.69
2022-09-23T23:13:55.151Z,96682.23
2022-09-23T23:17:45.422Z,96678.91
2022-09-23T23:21:38.374Z,96674.12
2022-09-23T23:41:13.483Z,96668.86
2022-09-23T23:45:06.454Z,96667.29
2022-09-23T23:48:57.575Z,96666.92
2022-09-23T23:52:48.890Z,96666.36
